Airfield :
LOGIN :

Register | Disclaimer

   EN    FR    IT 

 










Legend :    VFR   Marginal VFR   IFR   Intensive IFR   Very Intensive IFR
Visi :
Ceiling :
>= 8 km
>= 3000ft
5 to 8 km
1000 to 3000 ft
1500m to 5 km
500 to 1000 ft
800 to 1500m
200 to 500 ft
< 800m
< 200 ft
Symbols :   Thunderstorms  Fog  Heavy snow  Heavy precipitations  Wind > 20 kt
SIGMETs :     Misc.  Thunderstorms  Icing  Turbulence  Mountain Waves  Volcanic Ashes






- Airport Elevation : 1115 ft
- IATA code : GRZ


LOWG - Graz

CURRENT METAR :
  • 202320Z AUTO VRB01KT 9999 NSC M02/M04 Q1020

EXPIRED METARs :
  • 202250Z AUTO 24002KT 9999 NSC M00/M03 Q1020
  • 202220Z AUTO 29003KT 9999 NSC M00/M02 Q1020 R17/19//95 NOSIG
  • 202150Z AUTO VRB01KT 9999 NSC 01/M02 Q1020 R17/19//95 NOSIG
  • 202120Z AUTO 15002KT 9999 NSC 01/M02 Q1021 R17/19//95 NOSIG
  • 202050Z AUTO VRB01KT 9999 NSC 01/M02 Q1021 R17/19//95 NOSIG

TAF TAF LOWG
Valid from the 21 at 00:00 until the 22 at 00:00 UTC


202315Z 2100/2124 VRB02KT CAVOK TX13/2114Z TNM02/2105Z
BECMG 2107/2110 34007KT
TEMPO 2110/2117 34015G25KT
PROB30
TEMPO 2112/2115 35020G30KT



MET'MAP, your aeronautical weather chart ! - Copyright ORBIFLY December 2007 - Disclaimer

ORBIFLY MET'MAP TEAM :

Programming & Development : Alexandra Zaïnal
Concept & original design : Baudouin d'Aumeries
Assistance for programming : Marc-Olivier Méhu
Technical & hardware support : Manuel Goepfert

Contact : metmap@orbifly.com




SOURCES & CREDITS :

   NOAA